EHAM/AMS METAR and TAF weather

Enter ICAO airport designator
Station Type Date Time Source
EHAM METAR 2018/01/16 08:55 UTC NOAA

EHAM 160855Z 27019KT 9999 FEW022 05/02 Q0990 NOSIG


Station Type Date Time Source
EHAM Decoded METAR 2018/01/16 08:55 UTC NOAA

Amsterdam Airport Schiphol, Netherlands (EHAM) 52-18N 004-46E -2M
Jan 16, 2018 - 03:55 AM EST / 2018.01.16 0855 UTC
Wind: from the W (270 degrees) at 22 MPH (19 KT):0
Visibility: greater than 7 mile(s):0
Sky conditions: mostly clear
Temperature: 41 F (5 C)
Dew Point: 35 F (2 C)
Relative Humidity: 80%
Pressure (altimeter): 29.23 in. Hg (0990 hPa)
ob: EHAM 160855Z 27019KT 9999 FEW022 05/02 Q0990 NOSIG
cycle: 9

Station Type Date Time Source
EHAM TAF 2018/01/16 06:51 UTC NOAA

TAF COR EHAM 160546Z 1606/1712 27018G28KT 9999 SCT025
TEMPO 1606/1618 28022G33KT 6000 SHRA SHRAGS SCT008 SCT015CB BKN020
BECMG 1617/1619 24014KT
TEMPO 1618/1712 27022G35KT 4500 SHRAGS SHRASN BKN012 SCT015CB PROB30
TEMPO 1618/1712 1500 SHSN VV003
BECMG 1703/1706 27020G30KT
BECMG 1709/1712 30025G35KT


Example: see airport list